sensor_id;sensor_type;location;lat;lon;timestamp;P1;durP1;ratioP1;P2;durP2;ratioP2
4698;SDS011;33708;49.466;11.176;2023-05-08T00:00:36;12.37;;;6.07;;
4698;SDS011;33708;49.466;11.176;2023-05-08T00:03:02;13.97;;;7.00;;
4698;SDS011;33708;49.466;11.176;2023-05-08T00:05:29;18.67;;;6.93;;
4698;SDS011;33708;49.466;11.176;2023-05-08T00:07:54;14.80;;;7.10;;
4698;SDS011;33708;49.466;11.176;2023-05-08T00:10:25;13.97;;;6.77;;
4698;SDS011;33708;49.466;11.176;2023-05-08T00:12:54;13.07;;;6.90;;
4698;SDS011;33708;49.466;11.176;2023-05-08T00:15:20;14.47;;;7.10;;
4698;SDS011;33708;49.466;11.176;2023-05-08T00:17:46;13.50;;;7.33;;
4698;SDS011;33708;49.466;11.176;2023-05-08T00:20:12;13.40;;;6.53;;
4698;SDS011;33708;49.466;11.176;2023-05-08T00:22:38;14.40;;;7.17;;
4698;SDS011;33708;49.466;11.176;2023-05-08T00:25:04;14.60;;;7.33;;
4698;SDS011;33708;49.466;11.176;2023-05-08T00:27:30;13.97;;;7.00;;
4698;SDS011;33708;49.466;11.176;2023-05-08T00:29:56;14.80;;;7.23;;
4698;SDS011;33708;49.466;11.176;2023-05-08T00:32:22;18.07;;;6.00;;
4698;SDS011;33708;49.466;11.176;2023-05-08T00:34:48;13.53;;;6.60;;
4698;SDS011;33708;49.466;11.176;2023-05-08T00:37:14;11.57;;;5.50;;
4698;SDS011;33708;49.466;11.176;2023-05-08T00:39:39;13.77;;;6.70;;
4698;SDS011;33708;49.466;11.176;2023-05-08T00:42:05;12.80;;;6.70;;
4698;SDS011;33708;49.466;11.176;2023-05-08T00:44:31;15.10;;;6.80;;
4698;SDS011;33708;49.466;11.176;2023-05-08T00:46:57;14.80;;;6.63;;
4698;SDS011;33708;49.466;11.176;2023-05-08T00:49:23;13.73;;;6.63;;
4698;SDS011;33708;49.466;11.176;2023-05-08T00:51:50;16.20;;;7.30;;
4698;SDS011;33708;49.466;11.176;2023-05-08T00:54:18;14.10;;;6.87;;
4698;SDS011;33708;49.466;11.176;2023-05-08T00:56:44;15.70;;;6.53;;
4698;SDS011;33708;49.466;11.176;2023-05-08T00:59:12;13.63;;;5.80;;
4698;SDS011;33708;49.466;11.176;2023-05-08T01:01:39;13.37;;;6.60;;
4698;SDS011;33708;49.466;11.176;2023-05-08T01:04:06;15.30;;;6.90;;
4698;SDS011;33708;49.466;11.176;2023-05-08T01:06:32;13.93;;;7.50;;
4698;SDS011;33708;49.466;11.176;2023-05-08T01:08:58;11.83;;;5.97;;
4698;SDS011;33708;49.466;11.176;2023-05-08T01:11:28;12.90;;;6.07;;
4698;SDS011;33708;49.466;11.176;2023-05-08T01:14:24;12.20;;;5.77;;
4698;SDS011;33708;49.466;11.176;2023-05-08T01:20:04;13.87;;;6.20;;
4698;SDS011;33708;49.466;11.176;2023-05-08T01:31:10;12.77;;;6.37;;
4698;SDS011;33708;49.466;11.176;2023-05-08T01:33:45;11.73;;;6.00;;
4698;SDS011;33708;49.466;11.176;2023-05-08T01:39:19;13.67;;;5.97;;
4698;SDS011;33708;49.466;11.176;2023-05-08T01:41:54;13.13;;;6.73;;
4698;SDS011;33708;49.466;11.176;2023-05-08T01:44:25;13.13;;;5.80;;
4698;SDS011;33708;49.466;11.176;2023-05-08T01:46:57;12.33;;;6.33;;
4698;SDS011;33708;49.466;11.176;2023-05-08T01:49:29;12.87;;;6.33;;
4698;SDS011;33708;49.466;11.176;2023-05-08T01:55:04;13.40;;;7.30;;
4698;SDS011;33708;49.466;11.176;2023-05-08T01:57:36;12.93;;;6.07;;
4698;SDS011;33708;49.466;11.176;2023-05-08T02:00:11;12.70;;;6.37;;
4698;SDS011;33708;49.466;11.176;2023-05-08T02:02:38;13.57;;;6.47;;
4698;SDS011;33708;49.466;11.176;2023-05-08T02:05:04;12.50;;;6.50;;
4698;SDS011;33708;49.466;11.176;2023-05-08T02:07:32;14.63;;;6.67;;
4698;SDS011;33708;49.466;11.176;2023-05-08T02:10:02;14.20;;;6.80;;
4698;SDS011;33708;49.466;11.176;2023-05-08T02:12:29;19.10;;;6.90;;
4698;SDS011;33708;49.466;11.176;2023-05-08T02:14:56;14.77;;;6.47;;
4698;SDS011;33708;49.466;11.176;2023-05-08T02:17:24;12.93;;;6.80;;
4698;SDS011;33708;49.466;11.176;2023-05-08T02:19:51;12.93;;;6.27;;
4698;SDS011;33708;49.466;11.176;2023-05-08T02:22:18;12.60;;;6.53;;
4698;SDS011;33708;49.466;11.176;2023-05-08T02:24:47;12.73;;;6.70;;
4698;SDS011;33708;49.466;11.176;2023-05-08T02:27:13;15.33;;;7.77;;
4698;SDS011;33708;49.466;11.176;2023-05-08T02:29:40;13.90;;;6.90;;
4698;SDS011;33708;49.466;11.176;2023-05-08T02:32:07;13.10;;;6.57;;
4698;SDS011;33708;49.466;11.176;2023-05-08T02:34:33;13.67;;;6.60;;
4698;SDS011;33708;49.466;11.176;2023-05-08T02:37:01;15.10;;;7.10;;
4698;SDS011;33708;49.466;11.176;2023-05-08T02:39:29;14.30;;;7.10;;
4698;SDS011;33708;49.466;11.176;2023-05-08T02:41:56;15.77;;;6.77;;
4698;SDS011;33708;49.466;11.176;2023-05-08T02:44:22;14.30;;;7.10;;
4698;SDS011;33708;49.466;11.176;2023-05-08T02:46:48;13.60;;;6.80;;
4698;SDS011;33708;49.466;11.176;2023-05-08T02:52:05;16.93;;;8.13;;
4698;SDS011;33708;49.466;11.176;2023-05-08T02:54:37;15.77;;;6.90;;
4698;SDS011;33708;49.466;11.176;2023-05-08T02:57:47;14.50;;;8.13;;
4698;SDS011;33708;49.466;11.176;2023-05-08T03:00:34;13.60;;;7.20;;
4698;SDS011;33708;49.466;11.176;2023-05-08T03:03:08;15.17;;;7.90;;
4698;SDS011;33708;49.466;11.176;2023-05-08T03:05:50;15.03;;;8.33;;
4698;SDS011;33708;49.466;11.176;2023-05-08T03:08:18;13.60;;;7.43;;
4698;SDS011;33708;49.466;11.176;2023-05-08T03:10:50;14.27;;;7.20;;
4698;SDS011;33708;49.466;11.176;2023-05-08T03:13:18;15.37;;;8.53;;
4698;SDS011;33708;49.466;11.176;2023-05-08T03:15:46;14.87;;;8.17;;
4698;SDS011;33708;49.466;11.176;2023-05-08T03:18:16;15.23;;;7.80;;
4698;SDS011;33708;49.466;11.176;2023-05-08T03:20:46;17.23;;;8.77;;
4698;SDS011;33708;49.466;11.176;2023-05-08T03:23:14;15.27;;;8.10;;
4698;SDS011;33708;49.466;11.176;2023-05-08T03:25:43;16.33;;;8.37;;
4698;SDS011;33708;49.466;11.176;2023-05-08T03:28:10;15.57;;;8.40;;
4698;SDS011;33708;49.466;11.176;2023-05-08T03:30:37;16.17;;;7.90;;
4698;SDS011;33708;49.466;11.176;2023-05-08T03:33:05;16.80;;;8.37;;
4698;SDS011;33708;49.466;11.176;2023-05-08T03:35:34;15.60;;;8.97;;
4698;SDS011;33708;49.466;11.176;2023-05-08T03:38:01;17.27;;;9.00;;
4698;SDS011;33708;49.466;11.176;2023-05-08T03:40:27;16.17;;;8.80;;
4698;SDS011;33708;49.466;11.176;2023-05-08T03:42:53;16.00;;;8.40;;
4698;SDS011;33708;49.466;11.176;2023-05-08T03:45:20;18.73;;;9.90;;
4698;SDS011;33708;49.466;11.176;2023-05-08T03:47:46;15.40;;;9.20;;
4698;SDS011;33708;49.466;11.176;2023-05-08T03:50:13;15.80;;;8.97;;
4698;SDS011;33708;49.466;11.176;2023-05-08T03:52:39;17.73;;;9.03;;
4698;SDS011;33708;49.466;11.176;2023-05-08T03:55:05;15.57;;;9.40;;
4698;SDS011;33708;49.466;11.176;2023-05-08T03:57:33;16.80;;;9.20;;
4698;SDS011;33708;49.466;11.176;2023-05-08T04:02:49;16.70;;;9.27;;
4698;SDS011;33708;49.466;11.176;2023-05-08T04:07:55;16.07;;;9.30;;
4698;SDS011;33708;49.466;11.176;2023-05-08T04:10:40;15.37;;;9.00;;
4698;SDS011;33708;49.466;11.176;2023-05-08T04:13:14;17.57;;;9.77;;
4698;SDS011;33708;49.466;11.176;2023-05-08T04:16:08;18.00;;;9.97;;
4698;SDS011;33708;49.466;11.176;2023-05-08T04:18:44;15.30;;;8.20;;
4698;SDS011;33708;49.466;11.176;2023-05-08T04:21:12;17.77;;;10.13;;
4698;SDS011;33708;49.466;11.176;2023-05-08T04:23:47;17.57;;;9.80;;
4698;SDS011;33708;49.466;11.176;2023-05-08T04:26:15;15.90;;;8.70;;
4698;SDS011;33708;49.466;11.176;2023-05-08T04:28:42;16.80;;;9.47;;
4698;SDS011;33708;49.466;11.176;2023-05-08T04:31:08;19.60;;;9.83;;
4698;SDS011;33708;49.466;11.176;2023-05-08T04:33:34;18.33;;;9.17;;
4698;SDS011;33708;49.466;11.176;2023-05-08T04:36:01;17.90;;;10.07;;
4698;SDS011;33708;49.466;11.176;2023-05-08T04:38:27;18.90;;;10.33;;
4698;SDS011;33708;49.466;11.176;2023-05-08T04:40:52;17.80;;;9.33;;
4698;SDS011;33708;49.466;11.176;2023-05-08T04:43:18;16.30;;;8.77;;
4698;SDS011;33708;49.466;11.176;2023-05-08T04:45:44;17.37;;;9.20;;
4698;SDS011;33708;49.466;11.176;2023-05-08T04:48:09;17.33;;;9.10;;
4698;SDS011;33708;49.466;11.176;2023-05-08T04:50:35;17.90;;;9.50;;
4698;SDS011;33708;49.466;11.176;2023-05-08T04:53:01;17.17;;;9.20;;
4698;SDS011;33708;49.466;11.176;2023-05-08T04:55:26;22.80;;;8.30;;
4698;SDS011;33708;49.466;11.176;2023-05-08T04:57:52;18.47;;;9.43;;
4698;SDS011;33708;49.466;11.176;2023-05-08T05:00:17;16.87;;;9.50;;
4698;SDS011;33708;49.466;11.176;2023-05-08T05:02:43;16.40;;;9.13;;
4698;SDS011;33708;49.466;11.176;2023-05-08T05:05:09;16.50;;;8.60;;
4698;SDS011;33708;49.466;11.176;2023-05-08T05:07:35;15.63;;;9.10;;
4698;SDS011;33708;49.466;11.176;2023-05-08T05:10:00;15.73;;;8.80;;
4698;SDS011;33708;49.466;11.176;2023-05-08T05:12:26;15.43;;;8.57;;
4698;SDS011;33708;49.466;11.176;2023-05-08T05:14:52;16.77;;;8.87;;
4698;SDS011;33708;49.466;11.176;2023-05-08T05:17:17;21.67;;;8.50;;
4698;SDS011;33708;49.466;11.176;2023-05-08T05:19:43;18.63;;;8.57;;
4698;SDS011;33708;49.466;11.176;2023-05-08T05:22:08;19.53;;;8.80;;
4698;SDS011;33708;49.466;11.176;2023-05-08T05:24:34;14.70;;;8.10;;
4698;SDS011;33708;49.466;11.176;2023-05-08T05:27:00;14.93;;;8.13;;
4698;SDS011;33708;49.466;11.176;2023-05-08T05:29:26;16.13;;;8.70;;
4698;SDS011;33708;49.466;11.176;2023-05-08T05:31:52;16.63;;;8.73;;
4698;SDS011;33708;49.466;11.176;2023-05-08T05:34:18;15.80;;;8.20;;
4698;SDS011;33708;49.466;11.176;2023-05-08T05:36:43;17.07;;;8.80;;
4698;SDS011;33708;49.466;11.176;2023-05-08T05:39:09;18.63;;;8.63;;
4698;SDS011;33708;49.466;11.176;2023-05-08T05:41:34;19.30;;;8.63;;
4698;SDS011;33708;49.466;11.176;2023-05-08T05:44:00;25.43;;;10.30;;
4698;SDS011;33708;49.466;11.176;2023-05-08T05:46:26;27.30;;;10.80;;
4698;SDS011;33708;49.466;11.176;2023-05-08T05:48:56;21.47;;;9.23;;
4698;SDS011;33708;49.466;11.176;2023-05-08T05:51:22;18.93;;;8.70;;
4698;SDS011;33708;49.466;11.176;2023-05-08T05:53:48;18.70;;;8.83;;
4698;SDS011;33708;49.466;11.176;2023-05-08T05:56:14;17.13;;;8.27;;
4698;SDS011;33708;49.466;11.176;2023-05-08T05:58:39;16.30;;;8.87;;
4698;SDS011;33708;49.466;11.176;2023-05-08T06:01:08;17.37;;;9.00;;
4698;SDS011;33708;49.466;11.176;2023-05-08T06:03:34;15.90;;;9.17;;
4698;SDS011;33708;49.466;11.176;2023-05-08T06:06:00;17.00;;;8.70;;
4698;SDS011;33708;49.466;11.176;2023-05-08T06:08:26;17.37;;;8.90;;
4698;SDS011;33708;49.466;11.176;2023-05-08T06:10:51;17.10;;;8.50;;
4698;SDS011;33708;49.466;11.176;2023-05-08T06:13:17;16.93;;;9.10;;
4698;SDS011;33708;49.466;11.176;2023-05-08T06:15:43;16.33;;;8.30;;
4698;SDS011;33708;49.466;11.176;2023-05-08T06:18:09;15.60;;;8.63;;
4698;SDS011;33708;49.466;11.176;2023-05-08T06:20:38;15.67;;;8.17;;
4698;SDS011;33708;49.466;11.176;2023-05-08T06:23:04;15.87;;;8.07;;
4698;SDS011;33708;49.466;11.176;2023-05-08T06:25:29;15.10;;;8.13;;
4698;SDS011;33708;49.466;11.176;2023-05-08T06:27:55;15.57;;;8.77;;
4698;SDS011;33708;49.466;11.176;2023-05-08T06:30:21;15.47;;;8.60;;
4698;SDS011;33708;49.466;11.176;2023-05-08T06:32:47;14.40;;;7.70;;
4698;SDS011;33708;49.466;11.176;2023-05-08T06:35:13;15.73;;;8.00;;
4698;SDS011;33708;49.466;11.176;2023-05-08T06:37:43;16.63;;;8.77;;
4698;SDS011;33708;49.466;11.176;2023-05-08T06:40:10;15.90;;;8.27;;
4698;SDS011;33708;49.466;11.176;2023-05-08T06:42:36;16.20;;;8.53;;
4698;SDS011;33708;49.466;11.176;2023-05-08T06:45:02;14.30;;;7.93;;
4698;SDS011;33708;49.466;11.176;2023-05-08T06:47:28;23.13;;;8.23;;
4698;SDS011;33708;49.466;11.176;2023-05-08T06:49:53;22.90;;;9.17;;
4698;SDS011;33708;49.466;11.176;2023-05-08T06:52:19;22.53;;;7.93;;
4698;SDS011;33708;49.466;11.176;2023-05-08T06:54:45;14.47;;;6.83;;
4698;SDS011;33708;49.466;11.176;2023-05-08T06:57:11;13.90;;;7.30;;
4698;SDS011;33708;49.466;11.176;2023-05-08T06:59:40;14.00;;;6.70;;
4698;SDS011;33708;49.466;11.176;2023-05-08T07:02:05;14.50;;;7.30;;
4698;SDS011;33708;49.466;11.176;2023-05-08T07:04:33;15.53;;;6.83;;
4698;SDS011;33708;49.466;11.176;2023-05-08T07:06:59;13.37;;;6.93;;
4698;SDS011;33708;49.466;11.176;2023-05-08T07:09:24;16.00;;;7.30;;
4698;SDS011;33708;49.466;11.176;2023-05-08T07:11:50;14.33;;;6.90;;
4698;SDS011;33708;49.466;11.176;2023-05-08T07:14:16;14.90;;;7.17;;
4698;SDS011;33708;49.466;11.176;2023-05-08T07:16:41;13.53;;;7.20;;
4698;SDS011;33708;49.466;11.176;2023-05-08T07:19:07;20.03;;;6.97;;
4698;SDS011;33708;49.466;11.176;2023-05-08T07:21:33;19.33;;;7.27;;
4698;SDS011;33708;49.466;11.176;2023-05-08T07:23:58;16.57;;;7.47;;
4698;SDS011;33708;49.466;11.176;2023-05-08T07:26:24;15.00;;;5.57;;
4698;SDS011;33708;49.466;11.176;2023-05-08T07:28:50;16.53;;;6.83;;
4698;SDS011;33708;49.466;11.176;2023-05-08T07:31:17;14.07;;;6.27;;
4698;SDS011;33708;49.466;11.176;2023-05-08T07:33:43;13.73;;;6.70;;
4698;SDS011;33708;49.466;11.176;2023-05-08T07:36:10;12.43;;;6.40;;
4698;SDS011;33708;49.466;11.176;2023-05-08T07:38:36;14.63;;;7.60;;
4698;SDS011;33708;49.466;11.176;2023-05-08T07:41:02;13.90;;;6.60;;
4698;SDS011;33708;49.466;11.176;2023-05-08T07:43:29;12.73;;;6.43;;
4698;SDS011;33708;49.466;11.176;2023-05-08T07:45:55;15.50;;;6.07;;
4698;SDS011;33708;49.466;11.176;2023-05-08T07:48:21;19.60;;;7.17;;
4698;SDS011;33708;49.466;11.176;2023-05-08T07:50:48;14.33;;;7.00;;
4698;SDS011;33708;49.466;11.176;2023-05-08T07:53:14;15.40;;;6.77;;
4698;SDS011;33708;49.466;11.176;2023-05-08T07:55:39;21.13;;;7.00;;
4698;SDS011;33708;49.466;11.176;2023-05-08T07:58:05;13.67;;;6.40;;
4698;SDS011;33708;49.466;11.176;2023-05-08T08:00:31;13.07;;;6.73;;
4698;SDS011;33708;49.466;11.176;2023-05-08T08:02:57;13.43;;;6.60;;
4698;SDS011;33708;49.466;11.176;2023-05-08T08:05:23;15.37;;;7.03;;
4698;SDS011;33708;49.466;11.176;2023-05-08T08:07:49;12.63;;;6.27;;
4698;SDS011;33708;49.466;11.176;2023-05-08T08:10:14;13.00;;;6.70;;
4698;SDS011;33708;49.466;11.176;2023-05-08T08:12:40;17.83;;;7.70;;
4698;SDS011;33708;49.466;11.176;2023-05-08T08:15:06;16.50;;;6.90;;
4698;SDS011;33708;49.466;11.176;2023-05-08T08:17:32;15.30;;;6.60;;
4698;SDS011;33708;49.466;11.176;2023-05-08T08:19:57;14.03;;;7.13;;
4698;SDS011;33708;49.466;11.176;2023-05-08T08:22:24;14.67;;;7.23;;
4698;SDS011;33708;49.466;11.176;2023-05-08T08:24:50;14.83;;;7.47;;
4698;SDS011;33708;49.466;11.176;2023-05-08T08:27:16;15.63;;;7.63;;
4698;SDS011;33708;49.466;11.176;2023-05-08T08:29:41;15.57;;;6.80;;
4698;SDS011;33708;49.466;11.176;2023-05-08T08:32:07;14.80;;;7.20;;
4698;SDS011;33708;49.466;11.176;2023-05-08T08:34:33;14.40;;;6.77;;
4698;SDS011;33708;49.466;11.176;2023-05-08T08:36:59;16.77;;;7.70;;
4698;SDS011;33708;49.466;11.176;2023-05-08T08:39:25;15.83;;;8.70;;
4698;SDS011;33708;49.466;11.176;2023-05-08T08:41:51;15.90;;;8.47;;
4698;SDS011;33708;49.466;11.176;2023-05-08T08:44:17;13.30;;;7.20;;
4698;SDS011;33708;49.466;11.176;2023-05-08T08:46:49;13.60;;;7.20;;
4698;SDS011;33708;49.466;11.176;2023-05-08T08:49:29;15.27;;;8.20;;
4698;SDS011;33708;49.466;11.176;2023-05-08T08:51:58;15.27;;;7.80;;
4698;SDS011;33708;49.466;11.176;2023-05-08T08:54:28;15.00;;;7.37;;
4698;SDS011;33708;49.466;11.176;2023-05-08T08:56:59;20.63;;;7.90;;
4698;SDS011;33708;49.466;11.176;2023-05-08T08:59:26;21.50;;;7.10;;
4698;SDS011;33708;49.466;11.176;2023-05-08T09:01:54;13.27;;;7.07;;
4698;SDS011;33708;49.466;11.176;2023-05-08T09:04:25;16.70;;;8.00;;
4698;SDS011;33708;49.466;11.176;2023-05-08T09:06:51;14.57;;;8.00;;
4698;SDS011;33708;49.466;11.176;2023-05-08T09:09:17;16.60;;;7.80;;
4698;SDS011;33708;49.466;11.176;2023-05-08T09:11:43;14.10;;;7.60;;
4698;SDS011;33708;49.466;11.176;2023-05-08T09:14:10;16.00;;;8.30;;
4698;SDS011;33708;49.466;11.176;2023-05-08T09:16:36;16.90;;;7.47;;
4698;SDS011;33708;49.466;11.176;2023-05-08T09:19:02;16.50;;;8.33;;
4698;SDS011;33708;49.466;11.176;2023-05-08T09:21:28;14.20;;;7.37;;
4698;SDS011;33708;49.466;11.176;2023-05-08T09:23:57;19.90;;;8.70;;
4698;SDS011;33708;49.466;11.176;2023-05-08T09:26:34;16.70;;;6.90;;
4698;SDS011;33708;49.466;11.176;2023-05-08T09:29:07;15.90;;;8.70;;
4698;SDS011;33708;49.466;11.176;2023-05-08T09:31:34;14.47;;;7.60;;
4698;SDS011;33708;49.466;11.176;2023-05-08T09:34:04;13.63;;;7.80;;
4698;SDS011;33708;49.466;11.176;2023-05-08T09:36:31;14.60;;;7.53;;
4698;SDS011;33708;49.466;11.176;2023-05-08T09:38:58;16.23;;;7.63;;
4698;SDS011;33708;49.466;11.176;2023-05-08T09:41:25;14.40;;;7.80;;
4698;SDS011;33708;49.466;11.176;2023-05-08T09:44:01;19.17;;;7.07;;
4698;SDS011;33708;49.466;11.176;2023-05-08T09:46:28;14.73;;;7.23;;
4698;SDS011;33708;49.466;11.176;2023-05-08T09:48:57;18.10;;;7.53;;
4698;SDS011;33708;49.466;11.176;2023-05-08T09:51:24;16.23;;;7.30;;
4698;SDS011;33708;49.466;11.176;2023-05-08T09:53:54;19.20;;;8.20;;
4698;SDS011;33708;49.466;11.176;2023-05-08T09:56:30;21.30;;;8.50;;
4698;SDS011;33708;49.466;11.176;2023-05-08T09:58:57;16.33;;;7.70;;
4698;SDS011;33708;49.466;11.176;2023-05-08T10:01:26;19.67;;;8.27;;
4698;SDS011;33708;49.466;11.176;2023-05-08T10:04:03;18.20;;;8.43;;
4698;SDS011;33708;49.466;11.176;2023-05-08T10:06:29;15.43;;;9.03;;
4698;SDS011;33708;49.466;11.176;2023-05-08T10:11:51;18.50;;;8.23;;
4698;SDS011;33708;49.466;11.176;2023-05-08T10:14:17;13.97;;;7.50;;
4698;SDS011;33708;49.466;11.176;2023-05-08T10:16:44;17.30;;;7.80;;
4698;SDS011;33708;49.466;11.176;2023-05-08T10:19:14;15.70;;;8.10;;
4698;SDS011;33708;49.466;11.176;2023-05-08T10:21:42;15.80;;;6.90;;
4698;SDS011;33708;49.466;11.176;2023-05-08T10:24:15;14.03;;;7.07;;
4698;SDS011;33708;49.466;11.176;2023-05-08T10:26:43;16.43;;;8.87;;
4698;SDS011;33708;49.466;11.176;2023-05-08T10:30:07;19.00;;;7.90;;
4698;SDS011;33708;49.466;11.176;2023-05-08T10:32:18;14.70;;;7.60;;
4698;SDS011;33708;49.466;11.176;2023-05-08T10:34:46;15.20;;;8.27;;
4698;SDS011;33708;49.466;11.176;2023-05-08T10:37:16;16.03;;;8.30;;
4698;SDS011;33708;49.466;11.176;2023-05-08T10:39:43;14.23;;;7.90;;
4698;SDS011;33708;49.466;11.176;2023-05-08T10:42:09;17.40;;;7.57;;
4698;SDS011;33708;49.466;11.176;2023-05-08T10:44:37;15.50;;;8.77;;
4698;SDS011;33708;49.466;11.176;2023-05-08T10:49:34;17.70;;;8.90;;
4698;SDS011;33708;49.466;11.176;2023-05-08T10:55:07;15.17;;;7.90;;
4698;SDS011;33708;49.466;11.176;2023-05-08T11:01:09;14.90;;;8.37;;
4698;SDS011;33708;49.466;11.176;2023-05-08T11:03:27;15.30;;;6.63;;
4698;SDS011;33708;49.466;11.176;2023-05-08T11:05:54;14.00;;;7.33;;
4698;SDS011;33708;49.466;11.176;2023-05-08T11:08:22;14.37;;;8.00;;
4698;SDS011;33708;49.466;11.176;2023-05-08T11:10:59;15.27;;;7.17;;
4698;SDS011;33708;49.466;11.176;2023-05-08T11:13:34;14.30;;;8.37;;
4698;SDS011;33708;49.466;11.176;2023-05-08T11:16:01;17.07;;;8.00;;
4698;SDS011;33708;49.466;11.176;2023-05-08T11:18:27;17.27;;;8.03;;
4698;SDS011;33708;49.466;11.176;2023-05-08T11:23:32;13.73;;;7.83;;
4698;SDS011;33708;49.466;11.176;2023-05-08T11:28:35;15.90;;;8.00;;
4698;SDS011;33708;49.466;11.176;2023-05-08T11:31:03;15.03;;;8.03;;
4698;SDS011;33708;49.466;11.176;2023-05-08T11:33:30;13.67;;;7.60;;
4698;SDS011;33708;49.466;11.176;2023-05-08T11:35:57;15.00;;;7.80;;
4698;SDS011;33708;49.466;11.176;2023-05-08T11:39:05;14.10;;;7.03;;
4698;SDS011;33708;49.466;11.176;2023-05-08T11:41:40;15.47;;;8.80;;
4698;SDS011;33708;49.466;11.176;2023-05-08T11:49:16;16.30;;;7.80;;
4698;SDS011;33708;49.466;11.176;2023-05-08T11:51:47;14.83;;;8.43;;
4698;SDS011;33708;49.466;11.176;2023-05-08T11:54:15;15.03;;;7.53;;
4698;SDS011;33708;49.466;11.176;2023-05-08T11:56:46;20.07;;;7.87;;
4698;SDS011;33708;49.466;11.176;2023-05-08T11:59:15;17.27;;;7.37;;
4698;SDS011;33708;49.466;11.176;2023-05-08T12:01:42;14.80;;;7.70;;
4698;SDS011;33708;49.466;11.176;2023-05-08T12:04:08;17.43;;;7.07;;
4698;SDS011;33708;49.466;11.176;2023-05-08T12:06:36;14.93;;;6.77;;
4698;SDS011;33708;49.466;11.176;2023-05-08T12:09:12;16.10;;;8.50;;
4698;SDS011;33708;49.466;11.176;2023-05-08T12:11:39;14.80;;;7.67;;
4698;SDS011;33708;49.466;11.176;2023-05-08T12:14:07;14.73;;;8.30;;
4698;SDS011;33708;49.466;11.176;2023-05-08T12:16:37;16.73;;;7.70;;
4698;SDS011;33708;49.466;11.176;2023-05-08T12:19:03;17.13;;;8.00;;
4698;SDS011;33708;49.466;11.176;2023-05-08T12:21:36;16.27;;;8.77;;
4698;SDS011;33708;49.466;11.176;2023-05-08T12:24:05;14.70;;;7.43;;
4698;SDS011;33708;49.466;11.176;2023-05-08T12:26:35;15.57;;;8.80;;
4698;SDS011;33708;49.466;11.176;2023-05-08T12:29:04;13.50;;;7.23;;
4698;SDS011;33708;49.466;11.176;2023-05-08T12:31:32;15.80;;;7.70;;
4698;SDS011;33708;49.466;11.176;2023-05-08T12:34:01;14.10;;;7.17;;
4698;SDS011;33708;49.466;11.176;2023-05-08T12:36:32;14.20;;;7.53;;
4698;SDS011;33708;49.466;11.176;2023-05-08T12:39:11;15.57;;;7.73;;
4698;SDS011;33708;49.466;11.176;2023-05-08T12:41:44;18.60;;;8.40;;
4698;SDS011;33708;49.466;11.176;2023-05-08T12:44:15;16.30;;;7.70;;
4698;SDS011;33708;49.466;11.176;2023-05-08T12:46:45;15.40;;;7.83;;
4698;SDS011;33708;49.466;11.176;2023-05-08T12:49:13;14.40;;;7.43;;
4698;SDS011;33708;49.466;11.176;2023-05-08T12:51:46;14.27;;;7.63;;
4698;SDS011;33708;49.466;11.176;2023-05-08T12:54:12;15.73;;;8.00;;
4698;SDS011;33708;49.466;11.176;2023-05-08T12:56:41;14.07;;;7.80;;
4698;SDS011;33708;49.466;11.176;2023-05-08T12:59:08;15.80;;;8.37;;
4698;SDS011;33708;49.466;11.176;2023-05-08T13:01:33;13.50;;;7.00;;
4698;SDS011;33708;49.466;11.176;2023-05-08T13:03:59;14.37;;;7.30;;
4698;SDS011;33708;49.466;11.176;2023-05-08T13:06:26;16.17;;;8.20;;
4698;SDS011;33708;49.466;11.176;2023-05-08T13:08:52;15.53;;;8.13;;
4698;SDS011;33708;49.466;11.176;2023-05-08T13:11:30;18.57;;;8.30;;
4698;SDS011;33708;49.466;11.176;2023-05-08T13:13:57;13.47;;;7.63;;
4698;SDS011;33708;49.466;11.176;2023-05-08T13:16:22;19.20;;;8.33;;
4698;SDS011;33708;49.466;11.176;2023-05-08T13:18:48;14.10;;;7.03;;
4698;SDS011;33708;49.466;11.176;2023-05-08T13:21:13;13.60;;;7.17;;
4698;SDS011;33708;49.466;11.176;2023-05-08T13:23:39;21.00;;;8.03;;
4698;SDS011;33708;49.466;11.176;2023-05-08T13:26:07;20.57;;;7.57;;
4698;SDS011;33708;49.466;11.176;2023-05-08T13:28:32;14.67;;;7.67;;
4698;SDS011;33708;49.466;11.176;2023-05-08T13:30:58;14.37;;;7.87;;
4698;SDS011;33708;49.466;11.176;2023-05-08T13:33:24;17.20;;;8.20;;
4698;SDS011;33708;49.466;11.176;2023-05-08T13:35:50;13.60;;;7.70;;
4698;SDS011;33708;49.466;11.176;2023-05-08T13:38:15;16.00;;;8.37;;
4698;SDS011;33708;49.466;11.176;2023-05-08T13:40:41;14.40;;;7.70;;
4698;SDS011;33708;49.466;11.176;2023-05-08T13:43:06;20.70;;;8.83;;
4698;SDS011;33708;49.466;11.176;2023-05-08T13:45:32;14.20;;;7.57;;
4698;SDS011;33708;49.466;11.176;2023-05-08T13:47:58;13.53;;;7.30;;
4698;SDS011;33708;49.466;11.176;2023-05-08T13:50:23;14.00;;;7.43;;
4698;SDS011;33708;49.466;11.176;2023-05-08T13:52:49;14.57;;;7.20;;
4698;SDS011;33708;49.466;11.176;2023-05-08T13:55:15;18.60;;;7.83;;
4698;SDS011;33708;49.466;11.176;2023-05-08T13:57:41;14.67;;;7.33;;
4698;SDS011;33708;49.466;11.176;2023-05-08T14:00:07;14.13;;;7.03;;
4698;SDS011;33708;49.466;11.176;2023-05-08T14:02:33;14.20;;;7.00;;
4698;SDS011;33708;49.466;11.176;2023-05-08T14:05:01;14.73;;;7.40;;
4698;SDS011;33708;49.466;11.176;2023-05-08T14:07:26;26.83;;;6.60;;
4698;SDS011;33708;49.466;11.176;2023-05-08T14:09:53;12.83;;;6.03;;
4698;SDS011;33708;49.466;11.176;2023-05-08T14:12:19;13.87;;;6.90;;
4698;SDS011;33708;49.466;11.176;2023-05-08T14:14:45;14.23;;;6.37;;
4698;SDS011;33708;49.466;11.176;2023-05-08T14:17:10;16.63;;;6.97;;
4698;SDS011;33708;49.466;11.176;2023-05-08T14:19:36;15.13;;;7.27;;
4698;SDS011;33708;49.466;11.176;2023-05-08T14:22:02;16.17;;;6.43;;
4698;SDS011;33708;49.466;11.176;2023-05-08T14:24:27;21.60;;;7.30;;
4698;SDS011;33708;49.466;11.176;2023-05-08T14:26:53;21.73;;;6.80;;
4698;SDS011;33708;49.466;11.176;2023-05-08T14:29:19;15.40;;;6.63;;
4698;SDS011;33708;49.466;11.176;2023-05-08T14:31:44;14.77;;;7.50;;
4698;SDS011;33708;49.466;11.176;2023-05-08T14:34:10;17.87;;;7.47;;
4698;SDS011;33708;49.466;11.176;2023-05-08T14:36:35;13.30;;;6.90;;
4698;SDS011;33708;49.466;11.176;2023-05-08T14:39:01;12.80;;;6.70;;
4698;SDS011;33708;49.466;11.176;2023-05-08T14:41:27;15.07;;;7.57;;
4698;SDS011;33708;49.466;11.176;2023-05-08T14:43:53;19.70;;;6.87;;
4698;SDS011;33708;49.466;11.176;2023-05-08T14:46:19;13.70;;;7.67;;
4698;SDS011;33708;49.466;11.176;2023-05-08T14:48:44;15.70;;;6.70;;
4698;SDS011;33708;49.466;11.176;2023-05-08T14:51:10;14.17;;;7.10;;
4698;SDS011;33708;49.466;11.176;2023-05-08T14:53:36;13.50;;;6.70;;
4698;SDS011;33708;49.466;11.176;2023-05-08T14:56:02;15.00;;;7.30;;
4698;SDS011;33708;49.466;11.176;2023-05-08T14:58:28;15.00;;;7.00;;
4698;SDS011;33708;49.466;11.176;2023-05-08T15:00:53;17.10;;;7.70;;
4698;SDS011;33708;49.466;11.176;2023-05-08T15:03:20;17.73;;;6.17;;
4698;SDS011;33708;49.466;11.176;2023-05-08T15:05:46;14.10;;;6.17;;
4698;SDS011;33708;49.466;11.176;2023-05-08T15:08:11;15.83;;;5.57;;
4698;SDS011;33708;49.466;11.176;2023-05-08T15:10:37;18.13;;;5.60;;
4698;SDS011;33708;49.466;11.176;2023-05-08T15:13:03;16.00;;;5.20;;
4698;SDS011;33708;49.466;11.176;2023-05-08T15:15:29;12.40;;;5.60;;
4698;SDS011;33708;49.466;11.176;2023-05-08T15:17:55;13.07;;;5.37;;
4698;SDS011;33708;49.466;11.176;2023-05-08T15:20:20;13.30;;;4.83;;
4698;SDS011;33708;49.466;11.176;2023-05-08T15:22:46;14.00;;;5.17;;
4698;SDS011;33708;49.466;11.176;2023-05-08T15:25:12;15.60;;;6.10;;